createdAt,value
2023-05-10T00:01:19.671Z,21.73
2023-05-10T00:03:46.220Z,22.70
2023-05-10T00:06:16.120Z,20.80
2023-05-10T00:08:42.630Z,21.80
2023-05-10T00:11:09.057Z,23.17
2023-05-10T00:13:35.621Z,25.23
2023-05-10T00:16:02.138Z,28.48
2023-05-10T00:18:28.688Z,24.48
2023-05-10T00:20:55.183Z,24.10
2023-05-10T00:23:21.646Z,26.90
2023-05-10T00:25:48.086Z,27.23
2023-05-10T00:28:14.606Z,25.83
2023-05-10T00:30:41.028Z,30.95
2023-05-10T00:33:07.932Z,36.22
2023-05-10T00:35:34.981Z,29.48
2023-05-10T00:38:01.954Z,31.67
2023-05-10T00:40:29.675Z,34.92
2023-05-10T00:42:56.689Z,39.17
2023-05-10T00:45:23.980Z,37.92
2023-05-10T00:47:51.161Z,41.33
2023-05-10T00:50:18.135Z,39.07
2023-05-10T00:52:45.024Z,38.78
2023-05-10T00:55:13.165Z,45.67
2023-05-10T00:57:40.610Z,47.33
2023-05-10T01:00:07.889Z,49.13
2023-05-10T01:02:35.544Z,46.50
2023-05-10T01:05:04.739Z,49.72
2023-05-10T01:07:31.532Z,49.72
2023-05-10T01:09:58.846Z,49.33
2023-05-10T01:12:28.592Z,54.65
2023-05-10T01:14:55.935Z,48.03
2023-05-10T01:17:23.449Z,48.70
2023-05-10T01:19:50.343Z,49.03
2023-05-10T01:22:47.743Z,52.17
2023-05-10T01:25:29.550Z,52.00
2023-05-10T01:28:05.273Z,50.63
2023-05-10T01:31:09.518Z,51.40
2023-05-10T01:33:53.213Z,47.00
2023-05-10T01:36:36.076Z,49.42
2023-05-10T01:39:06.792Z,50.83
2023-05-10T01:42:00.292Z,48.43
2023-05-10T01:44:59.313Z,56.88
2023-05-10T01:47:49.649Z,56.08
2023-05-10T01:50:20.855Z,54.85
2023-05-10T01:52:58.546Z,51.40
2023-05-10T01:55:30.490Z,50.30
2023-05-10T01:58:03.968Z,59.20
2023-05-10T02:00:32.236Z,51.30
2023-05-10T02:03:01.049Z,55.25
2023-05-10T02:05:30.131Z,52.78
2023-05-10T02:07:59.123Z,55.57
2023-05-10T02:10:26.962Z,52.17
2023-05-10T02:12:54.809Z,53.53
2023-05-10T02:15:25.673Z,57.42
2023-05-10T02:17:55.410Z,53.70
2023-05-10T02:20:24.294Z,57.10
2023-05-10T02:22:53.427Z,53.13
2023-05-10T02:25:22.598Z,56.40
2023-05-10T02:27:49.887Z,62.75
2023-05-10T02:30:17.404Z,59.63
2023-05-10T02:32:45.523Z,55.60
2023-05-10T02:35:12.234Z,56.25
2023-05-10T02:37:40.739Z,53.00
2023-05-10T02:40:08.473Z,59.03
2023-05-10T02:42:37.944Z,53.90
2023-05-10T02:45:09.446Z,56.73
2023-05-10T02:47:36.339Z,51.55
2023-05-10T02:50:02.961Z,51.55
2023-05-10T02:52:36.999Z,62.70
2023-05-10T02:55:07.660Z,56.03
2023-05-10T02:57:35.839Z,62.20
2023-05-10T03:00:04.280Z,60.35
2023-05-10T03:02:31.974Z,55.92
2023-05-10T03:04:58.602Z,56.63
2023-05-10T03:07:25.320Z,58.63
2023-05-10T03:09:52.135Z,62.23
2023-05-10T03:12:27.552Z,67.30
2023-05-10T03:15:16.947Z,69.65
2023-05-10T03:17:59.582Z,67.07
2023-05-10T03:20:30.605Z,68.55
2023-05-10T03:23:20.539Z,63.80
2023-05-10T03:25:48.922Z,68.05
2023-05-10T03:28:18.196Z,72.32
2023-05-10T03:30:45.941Z,64.82
2023-05-10T03:33:13.751Z,64.65
2023-05-10T03:35:40.437Z,69.97
2023-05-10T03:38:06.924Z,68.85
2023-05-10T03:40:33.503Z,69.38
2023-05-10T03:43:00.274Z,76.43
2023-05-10T03:45:27.221Z,75.53
2023-05-10T03:47:54.041Z,73.53
2023-05-10T03:50:22.794Z,65.20
2023-05-10T03:52:49.307Z,70.47
2023-05-10T03:55:16.144Z,72.38
2023-05-10T03:57:42.669Z,71.20
2023-05-10T04:00:10.593Z,76.10
2023-05-10T04:02:38.289Z,72.95
2023-05-10T04:05:05.443Z,71.63
2023-05-10T04:07:31.904Z,73.32
2023-05-10T04:09:58.328Z,81.47
2023-05-10T04:12:25.030Z,74.93
2023-05-10T04:14:52.033Z,72.07
2023-05-10T04:17:18.557Z,71.65
2023-05-10T04:19:44.983Z,76.43
2023-05-10T04:22:11.444Z,67.03
2023-05-10T04:24:37.858Z,78.57
2023-05-10T04:27:04.328Z,71.95
2023-05-10T04:29:30.771Z,70.18
2023-05-10T04:31:57.636Z,71.32
2023-05-10T04:34:24.070Z,63.50
2023-05-10T04:36:51.497Z,72.17
2023-05-10T04:39:17.964Z,64.63
2023-05-10T04:41:44.432Z,77.30
2023-05-10T04:44:10.861Z,67.68
2023-05-10T04:46:37.392Z,66.80
2023-05-10T04:49:03.899Z,69.10
2023-05-10T04:51:30.412Z,71.70
2023-05-10T04:54:06.072Z,68.68
2023-05-10T04:56:33.485Z,68.47
2023-05-10T04:59:00.157Z,68.97
2023-05-10T05:01:26.842Z,63.40
2023-05-10T05:03:53.964Z,71.50
2023-05-10T05:06:21.956Z,72.18
2023-05-10T05:08:50.355Z,75.00
2023-05-10T05:11:17.993Z,79.28
2023-05-10T05:13:44.603Z,77.30
2023-05-10T05:16:12.185Z,74.88
2023-05-10T05:18:38.722Z,80.20
2023-05-10T05:21:15.052Z,68.55
2023-05-10T05:23:41.572Z,78.47
2023-05-10T05:26:07.976Z,77.97
2023-05-10T05:28:38.135Z,76.13
2023-05-10T05:31:05.761Z,74.80
2023-05-10T05:33:33.400Z,79.00
2023-05-10T05:36:03.930Z,71.10
2023-05-10T05:38:30.452Z,75.87
2023-05-10T05:40:57.998Z,65.10
2023-05-10T05:43:24.493Z,61.53
2023-05-10T05:45:57.502Z,66.10
2023-05-10T05:48:24.209Z,63.75
2023-05-10T05:50:51.060Z,59.73
2023-05-10T05:53:17.474Z,60.28
2023-05-10T05:55:58.199Z,65.63
2023-05-10T05:58:26.064Z,66.10
2023-05-10T06:00:53.105Z,63.17
2023-05-10T06:03:20.280Z,66.50
2023-05-10T06:05:46.999Z,56.10
2023-05-10T06:08:13.513Z,57.22
2023-05-10T06:10:39.968Z,47.70
2023-05-10T06:13:06.506Z,51.15
2023-05-10T06:15:33.641Z,47.00
2023-05-10T06:18:00.240Z,50.42
2023-05-10T06:20:26.935Z,54.85
2023-05-10T06:22:53.514Z,57.03
2023-05-10T06:25:19.965Z,52.72
2023-05-10T06:27:49.779Z,56.67
2023-05-10T06:30:17.573Z,46.67
2023-05-10T06:32:45.221Z,50.30
2023-05-10T06:35:11.965Z,51.70
2023-05-10T06:37:38.420Z,49.03
2023-05-10T06:40:06.096Z,47.57
2023-05-10T06:42:32.625Z,44.30
2023-05-10T06:44:59.098Z,47.38
2023-05-10T06:47:25.832Z,39.80
2023-05-10T06:49:52.304Z,45.55
2023-05-10T06:52:18.814Z,36.87
2023-05-10T06:54:45.425Z,31.92
2023-05-10T06:57:23.306Z,30.80
2023-05-10T06:59:58.442Z,30.20
2023-05-10T07:02:24.905Z,27.17
2023-05-10T07:04:53.013Z,24.47
2023-05-10T07:07:20.032Z,27.15
2023-05-10T07:09:46.855Z,24.42
2023-05-10T07:12:15.330Z,17.98
2023-05-10T07:14:42.447Z,21.95
2023-05-10T07:17:13.454Z,20.90
2023-05-10T07:19:40.064Z,20.52
2023-05-10T07:22:06.640Z,22.90
2023-05-10T07:24:34.137Z,18.50
2023-05-10T07:27:00.873Z,20.88
2023-05-10T07:29:28.389Z,21.07
2023-05-10T07:31:57.874Z,16.20
2023-05-10T07:34:25.612Z,17.08
2023-05-10T07:36:52.724Z,16.25
2023-05-10T07:39:26.711Z,20.00
2023-05-10T07:41:55.253Z,17.00
2023-05-10T07:44:21.706Z,25.20
2023-05-10T07:46:48.725Z,22.50
2023-05-10T07:49:15.345Z,22.05
2023-05-10T07:51:43.309Z,18.50
2023-05-10T07:54:09.747Z,19.57
2023-05-10T07:56:36.355Z,20.80
2023-05-10T07:59:05.022Z,23.17
2023-05-10T08:01:33.428Z,17.15
2023-05-10T08:04:05.056Z,18.60
2023-05-10T08:06:31.603Z,14.50
2023-05-10T08:08:58.238Z,16.55
2023-05-10T08:11:24.705Z,18.02
2023-05-10T08:13:52.053Z,13.98
2023-05-10T08:16:18.899Z,16.58
2023-05-10T08:18:47.714Z,17.30
2023-05-10T08:21:15.478Z,17.60
2023-05-10T08:23:42.052Z,16.60
2023-05-10T08:26:08.487Z,14.90
2023-05-10T08:28:35.000Z,14.05
2023-05-10T08:31:01.534Z,19.80
2023-05-10T08:33:28.110Z,15.32
2023-05-10T08:35:54.577Z,16.63
2023-05-10T08:38:21.303Z,18.08
2023-05-10T08:40:49.889Z,16.10
2023-05-10T08:43:16.473Z,19.67
2023-05-10T08:45:46.310Z,39.58
2023-05-10T08:48:12.878Z,18.85
2023-05-10T08:50:41.706Z,26.45
2023-05-10T08:53:12.061Z,17.83
2023-05-10T08:55:39.816Z,17.37
2023-05-10T08:58:07.313Z,18.48
2023-05-10T09:00:34.721Z,19.98
2023-05-10T09:03:02.613Z,16.80
2023-05-10T09:05:29.477Z,16.45
2023-05-10T09:07:56.282Z,22.67
2023-05-10T09:10:26.982Z,17.08
2023-05-10T09:12:58.547Z,14.02
2023-05-10T09:15:25.786Z,14.52
2023-05-10T09:17:52.513Z,18.02
2023-05-10T09:20:19.311Z,16.63
2023-05-10T09:22:45.965Z,13.32
2023-05-10T09:25:17.174Z,11.90
2023-05-10T09:27:48.214Z,8.20
2023-05-10T09:30:25.163Z,9.52
2023-05-10T09:32:51.899Z,7.10
2023-05-10T09:35:20.202Z,9.40
2023-05-10T09:37:51.294Z,7.05
2023-05-10T09:40:20.316Z,5.53
2023-05-10T09:43:09.998Z,7.70
2023-05-10T09:45:38.570Z,7.60
2023-05-10T09:48:06.248Z,7.10
2023-05-10T09:50:32.851Z,8.75
2023-05-10T09:53:04.311Z,7.60
2023-05-10T09:55:39.827Z,6.15
2023-05-10T09:58:11.114Z,6.23
2023-05-10T10:00:39.739Z,7.05
2023-05-10T10:03:06.620Z,7.28
2023-05-10T10:05:35.358Z,10.50
2023-05-10T10:08:05.799Z,10.63
2023-05-10T10:10:33.188Z,10.03
2023-05-10T10:13:00.645Z,12.63
2023-05-10T10:15:27.504Z,8.15
2023-05-10T10:17:55.746Z,10.55
2023-05-10T10:20:23.713Z,9.38
2023-05-10T10:22:50.346Z,7.77
2023-05-10T10:25:19.124Z,9.18
2023-05-10T10:27:54.843Z,9.98
2023-05-10T10:30:24.095Z,9.60
2023-05-10T10:33:16.846Z,8.43
2023-05-10T10:35:55.436Z,10.50
2023-05-10T10:38:22.943Z,8.18
2023-05-10T10:41:03.301Z,8.82
2023-05-10T10:43:30.463Z,9.75
2023-05-10T10:46:17.130Z,9.60
2023-05-10T10:48:52.642Z,8.00
2023-05-10T10:51:19.199Z,10.82
2023-05-10T10:53:48.574Z,12.13
2023-05-10T10:56:16.338Z,9.77
2023-05-10T10:58:52.290Z,7.85
2023-05-10T11:01:19.857Z,7.07
2023-05-10T11:04:01.742Z,8.80
2023-05-10T11:06:35.219Z,10.32
2023-05-10T11:09:09.415Z,8.82
2023-05-10T11:11:38.669Z,8.70
2023-05-10T11:14:07.193Z,7.73
2023-05-10T11:16:44.429Z,8.68
2023-05-10T11:19:18.473Z,8.27
2023-05-10T11:22:06.790Z,8.25
2023-05-10T11:24:34.755Z,6.97
2023-05-10T11:27:01.869Z,9.57
2023-05-10T11:29:28.389Z,10.63
2023-05-10T11:31:58.452Z,9.63
2023-05-10T11:34:36.203Z,9.07
2023-05-10T11:37:02.819Z,8.27
2023-05-10T11:39:32.953Z,10.43
2023-05-10T11:42:00.272Z,9.20
2023-05-10T11:44:33.766Z,8.90
2023-05-10T11:47:01.776Z,6.80
2023-05-10T11:49:28.494Z,5.93
2023-05-10T11:52:04.980Z,11.23
2023-05-10T11:54:32.018Z,8.65
2023-05-10T11:56:59.272Z,8.35
2023-05-10T11:59:26.305Z,6.90
2023-05-10T12:01:52.988Z,7.60
2023-05-10T12:04:20.099Z,6.73
2023-05-10T12:06:47.589Z,5.10
2023-05-10T12:09:15.786Z,5.88
2023-05-10T12:11:44.582Z,6.78
2023-05-10T12:14:11.869Z,7.85
2023-05-10T12:16:38.609Z,6.00
2023-05-10T12:19:06.418Z,4.88
2023-05-10T12:21:34.373Z,8.05
2023-05-10T12:24:04.236Z,5.32
2023-05-10T12:26:30.967Z,7.20
2023-05-10T12:29:13.893Z,6.90
2023-05-10T12:32:00.408Z,6.18
2023-05-10T12:34:37.194Z,5.00
2023-05-10T12:37:04.546Z,5.43
2023-05-10T12:40:00.206Z,4.40
2023-05-10T12:42:26.735Z,4.47
2023-05-10T12:44:59.291Z,4.63
2023-05-10T12:47:25.881Z,5.05
2023-05-10T12:49:52.309Z,4.90
2023-05-10T12:52:18.866Z,5.53
2023-05-10T12:54:45.375Z,3.93
2023-05-10T12:57:11.794Z,4.50
2023-05-10T12:59:38.466Z,5.88
2023-05-10T13:02:05.024Z,4.10
2023-05-10T13:04:31.509Z,6.25
2023-05-10T13:06:59.946Z,3.67
2023-05-10T13:09:28.034Z,5.72
2023-05-10T13:11:55.279Z,4.15
2023-05-10T13:14:22.100Z,3.80
2023-05-10T13:16:50.288Z,4.50
2023-05-10T13:19:17.753Z,5.37
2023-05-10T13:21:45.414Z,4.28
2023-05-10T13:24:14.635Z,8.75
2023-05-10T13:26:41.869Z,9.50
2023-05-10T13:29:08.951Z,9.73
2023-05-10T13:31:36.218Z,11.70
2023-05-10T13:34:03.437Z,9.02
2023-05-10T13:36:29.986Z,8.63
2023-05-10T13:38:59.213Z,7.53
2023-05-10T13:41:26.439Z,10.10
2023-05-10T13:43:52.880Z,12.10
2023-05-10T13:46:19.913Z,9.60
2023-05-10T13:48:46.429Z,11.73
2023-05-10T13:51:13.709Z,11.63
2023-05-10T13:53:40.168Z,10.10
2023-05-10T13:56:07.455Z,8.80
2023-05-10T13:58:33.838Z,12.27
2023-05-10T14:01:00.296Z,12.52
2023-05-10T14:03:27.090Z,13.65
2023-05-10T14:05:53.572Z,10.13
2023-05-10T14:08:21.159Z,10.37
2023-05-10T14:10:47.737Z,11.68
2023-05-10T14:13:14.273Z,11.30
2023-05-10T14:15:40.720Z,13.20
2023-05-10T14:18:07.222Z,11.57
2023-05-10T14:20:34.704Z,12.57
2023-05-10T14:23:01.305Z,13.70
2023-05-10T14:25:27.912Z,12.27
2023-05-10T14:27:55.574Z,12.15
2023-05-10T14:30:22.059Z,11.40
2023-05-10T14:32:48.516Z,11.83
2023-05-10T14:35:16.923Z,10.68
2023-05-10T14:37:45.824Z,11.02
2023-05-10T14:40:13.409Z,10.98
2023-05-10T14:42:39.898Z,12.30
2023-05-10T14:45:06.725Z,10.43
2023-05-10T14:47:33.262Z,10.02
2023-05-10T14:50:00.071Z,11.90
2023-05-10T14:52:26.796Z,16.17
2023-05-10T14:54:53.611Z,12.80
2023-05-10T14:57:20.195Z,15.90
2023-05-10T14:59:46.816Z,12.20
2023-05-10T15:02:14.554Z,11.95
2023-05-10T15:04:41.388Z,14.35
2023-05-10T15:07:08.334Z,12.93
2023-05-10T15:09:34.827Z,13.53
2023-05-10T15:12:01.550Z,14.23
2023-05-10T15:14:27.992Z,13.57
2023-05-10T15:16:54.564Z,14.52
2023-05-10T15:19:21.421Z,12.95
2023-05-10T15:21:48.346Z,11.93
2023-05-10T15:24:15.546Z,13.23
2023-05-10T15:26:42.159Z,12.80
2023-05-10T15:29:08.782Z,14.32
2023-05-10T15:31:36.846Z,13.02
2023-05-10T15:34:03.435Z,12.97
2023-05-10T15:36:29.863Z,11.07
2023-05-10T15:38:56.789Z,11.38
2023-05-10T15:41:23.701Z,13.13
2023-05-10T15:43:50.156Z,11.35
2023-05-10T15:46:16.630Z,10.23
2023-05-10T15:48:43.507Z,10.88
2023-05-10T15:51:10.321Z,12.63
2023-05-10T15:53:36.775Z,10.60
2023-05-10T15:56:04.636Z,12.63
2023-05-10T15:58:31.651Z,9.03
2023-05-10T16:00:58.225Z,10.60
2023-05-10T16:03:24.910Z,9.48
2023-05-10T16:05:51.393Z,8.93
2023-05-10T16:08:17.947Z,9.88
2023-05-10T16:10:44.408Z,11.30
2023-05-10T16:13:10.906Z,9.10
2023-05-10T16:15:37.396Z,8.75
2023-05-10T16:18:04.103Z,10.38
2023-05-10T16:20:31.304Z,10.18
2023-05-10T16:23:01.538Z,8.23
2023-05-10T16:25:27.955Z,9.85
2023-05-10T16:27:54.376Z,10.63
2023-05-10T16:30:23.561Z,7.80
2023-05-10T16:32:50.948Z,11.85
2023-05-10T16:35:17.679Z,8.80
2023-05-10T16:37:44.532Z,11.63
2023-05-10T16:40:11.278Z,11.40
2023-05-10T16:42:37.767Z,9.45
2023-05-10T16:45:07.780Z,10.73
2023-05-10T16:47:35.534Z,8.90
2023-05-10T16:50:05.931Z,11.43
2023-05-10T16:52:33.967Z,10.05
2023-05-10T16:55:00.988Z,9.75
2023-05-10T16:57:27.992Z,10.55
2023-05-10T16:59:54.607Z,9.60
2023-05-10T17:02:21.622Z,10.50
2023-05-10T17:04:48.400Z,9.80
2023-05-10T17:07:15.557Z,11.38
2023-05-10T17:09:43.328Z,7.45
2023-05-10T17:12:10.002Z,6.37
2023-05-10T17:14:40.061Z,9.77
2023-05-10T17:17:06.883Z,6.03
2023-05-10T17:19:33.862Z,7.25
2023-05-10T17:22:00.366Z,6.72
2023-05-10T17:24:29.572Z,6.53
2023-05-10T17:26:57.408Z,6.05
2023-05-10T17:29:24.070Z,6.45
2023-05-10T17:31:50.595Z,8.45
2023-05-10T17:34:17.049Z,5.72
2023-05-10T17:36:43.555Z,6.30
2023-05-10T17:39:10.014Z,7.70
2023-05-10T17:41:36.465Z,8.98
2023-05-10T17:44:02.912Z,6.95
2023-05-10T17:46:29.376Z,9.88
2023-05-10T17:48:55.828Z,7.00
2023-05-10T17:51:22.250Z,8.30
2023-05-10T17:53:48.709Z,8.27
2023-05-10T17:56:15.163Z,7.55
2023-05-10T17:58:41.861Z,7.68
2023-05-10T18:01:09.517Z,9.13
2023-05-10T18:03:36.111Z,9.05
2023-05-10T18:06:04.313Z,7.72
2023-05-10T18:08:31.091Z,8.38
2023-05-10T18:10:57.696Z,8.23
2023-05-10T18:13:25.642Z,8.83
2023-05-10T18:15:52.311Z,10.73
2023-05-10T18:18:18.778Z,7.80
2023-05-10T18:20:46.357Z,9.80
2023-05-10T18:23:13.249Z,8.13
2023-05-10T18:25:39.677Z,9.80
2023-05-10T18:28:07.886Z,10.02
2023-05-10T18:30:34.509Z,12.63
2023-05-10T18:33:01.147Z,13.43
2023-05-10T18:35:28.783Z,10.68
2023-05-10T18:37:56.172Z,11.17
2023-05-10T18:40:22.690Z,10.15
2023-05-10T18:42:50.555Z,11.15
2023-05-10T18:45:17.214Z,11.20
2023-05-10T18:47:44.135Z,11.93
2023-05-10T18:50:11.255Z,14.53
2023-05-10T18:52:37.742Z,11.38
2023-05-10T18:55:04.696Z,12.63
2023-05-10T18:57:31.324Z,10.60
2023-05-10T18:59:57.977Z,14.23
2023-05-10T19:02:26.575Z,13.00
2023-05-10T19:04:53.202Z,12.27
2023-05-10T19:07:19.726Z,12.35
2023-05-10T19:09:46.133Z,13.30
2023-05-10T19:12:12.719Z,15.50
2023-05-10T19:14:39.135Z,13.30
2023-05-10T19:17:07.762Z,11.98
2023-05-10T19:19:35.310Z,12.52
2023-05-10T19:22:03.252Z,12.40
2023-05-10T19:24:29.752Z,15.15
2023-05-10T19:26:57.824Z,14.13
2023-05-10T19:29:25.577Z,15.05
2023-05-10T19:31:53.080Z,12.50
2023-05-10T19:34:20.474Z,14.90
2023-05-10T19:36:46.992Z,14.52
2023-05-10T19:39:13.602Z,12.90
2023-05-10T19:41:40.104Z,14.27
2023-05-10T19:44:06.706Z,12.52
2023-05-10T19:46:33.501Z,12.85
2023-05-10T19:49:00.025Z,14.90
2023-05-10T19:51:26.691Z,13.57
2023-05-10T19:53:53.119Z,77.55
2023-05-10T19:56:19.553Z,26.02
2023-05-10T19:58:46.579Z,25.00
2023-05-10T20:01:13.261Z,16.85
2023-05-10T20:03:39.708Z,17.27
2023-05-10T20:06:06.230Z,15.05
2023-05-10T20:08:32.724Z,14.98
2023-05-10T20:11:02.125Z,14.50
2023-05-10T20:13:28.613Z,16.77
2023-05-10T20:15:56.428Z,14.20
2023-05-10T20:18:23.513Z,13.55
2023-05-10T20:20:59.619Z,12.15
2023-05-10T20:23:26.388Z,15.05
2023-05-10T20:25:53.632Z,16.05
2023-05-10T20:28:25.218Z,11.80
2023-05-10T20:30:53.437Z,16.63
2023-05-10T20:33:20.120Z,15.98
2023-05-10T20:35:46.694Z,15.15
2023-05-10T20:38:13.277Z,15.27
2023-05-10T20:40:40.075Z,16.03
2023-05-10T20:43:06.742Z,16.67
2023-05-10T20:45:33.370Z,18.73
2023-05-10T20:48:00.270Z,14.75
2023-05-10T20:50:26.910Z,13.45
2023-05-10T20:52:53.589Z,14.90
2023-05-10T20:55:20.971Z,17.88
2023-05-10T20:57:47.526Z,15.90
2023-05-10T21:00:14.614Z,20.27
2023-05-10T21:02:45.367Z,17.02
2023-05-10T21:05:12.498Z,15.30
2023-05-10T21:07:39.440Z,14.05
2023-05-10T21:10:10.432Z,15.60
2023-05-10T21:12:37.214Z,17.40
2023-05-10T21:15:04.304Z,15.35
2023-05-10T21:17:30.762Z,18.93
2023-05-10T21:19:57.244Z,17.70
2023-05-10T21:22:23.675Z,15.90
2023-05-10T21:24:50.124Z,15.50
2023-05-10T21:27:16.653Z,17.92
2023-05-10T21:29:43.111Z,16.33
2023-05-10T21:32:09.917Z,17.17
2023-05-10T21:34:36.520Z,17.08
2023-05-10T21:37:03.036Z,15.85
2023-05-10T21:39:29.516Z,16.73
2023-05-10T21:41:56.117Z,16.53
2023-05-10T21:44:22.651Z,18.92
2023-05-10T21:46:49.128Z,18.67
2023-05-10T21:49:15.599Z,16.67
2023-05-10T21:51:42.151Z,19.02
2023-05-10T21:54:08.576Z,15.27
2023-05-10T21:56:35.007Z,16.10
2023-05-10T21:59:01.458Z,17.13
2023-05-10T22:01:28.043Z,15.43
2023-05-10T22:03:54.683Z,15.73
2023-05-10T22:06:21.137Z,18.00
2023-05-10T22:08:47.566Z,16.92
2023-05-10T22:11:14.014Z,16.83
2023-05-10T22:13:40.448Z,13.77
2023-05-10T22:16:06.952Z,16.55
2023-05-10T22:18:33.388Z,16.53
2023-05-10T22:20:59.914Z,14.50
2023-05-10T22:23:26.359Z,17.45
2023-05-10T22:25:52.826Z,17.90
2023-05-10T22:28:19.277Z,21.20
2023-05-10T22:30:45.807Z,26.70
2023-05-10T22:33:12.357Z,23.20
2023-05-10T22:35:38.854Z,15.55
2023-05-10T22:38:05.370Z,14.85
2023-05-10T22:40:32.277Z,15.23
2023-05-10T22:42:58.718Z,17.33
2023-05-10T22:45:25.705Z,17.80
2023-05-10T22:47:52.365Z,18.50
2023-05-10T22:50:19.257Z,16.15
2023-05-10T22:52:45.892Z,15.93
2023-05-10T22:55:12.383Z,17.07
2023-05-10T22:57:39.008Z,18.42
2023-05-10T23:00:06.440Z,16.30
2023-05-10T23:02:32.947Z,18.17
2023-05-10T23:04:59.431Z,17.90
2023-05-10T23:07:25.904Z,19.30
2023-05-10T23:09:52.424Z,18.83
2023-05-10T23:12:18.929Z,20.63
2023-05-10T23:14:46.550Z,17.98
2023-05-10T23:17:13.585Z,21.27
2023-05-10T23:19:40.100Z,17.17
2023-05-10T23:22:06.614Z,16.67
2023-05-10T23:24:33.124Z,18.52
2023-05-10T23:27:00.007Z,17.30
2023-05-10T23:29:26.762Z,18.10
2023-05-10T23:31:53.357Z,19.00
2023-05-10T23:34:19.823Z,22.15
2023-05-10T23:36:46.314Z,23.17
2023-05-10T23:39:13.464Z,21.10
2023-05-10T23:41:39.992Z,20.92
2023-05-10T23:44:06.620Z,19.37
2023-05-10T23:46:33.099Z,21.73
2023-05-10T23:48:59.592Z,22.02
2023-05-10T23:51:26.077Z,19.30
2023-05-10T23:53:52.573Z,20.83
2023-05-10T23:56:19.157Z,22.60
2023-05-10T23:58:46.355Z,20.52
